Glynn, Louisiana
Current Conditions -  °F | °C
As of 5:55 AM on Saturday 22 Nov 2014 (Local Time) from KHZR Reporting Station
Clear Clear  
Wind Chill: 54°   Ceiling: Unl
Heat Index: 54°   Visibility: 10mi
Dew Point: 48°   Wind: 3mph
Humidity: 82%   Direction: 70°ENE
Pressure: 30.21"   Gusts: NA
Location:  30.63°N, 91.36°W
Report Text: KHZR 221155Z AUTO 07003KT 10SM CLR 12/09 A3021 RMK AO2 T01200091 10130 20105
Loading
Personal Weather Stations






























Interactive Weather Map New forecast layout! Learn more

10-Day Weather Forecast

Advertisements
Track Severe Weather on mobile